createdAt,value
2023-10-19T00:02:08.946Z,16.55
2023-10-19T00:04:37.315Z,16.30
2023-10-19T00:07:06.958Z,14.18
2023-10-19T00:09:38.612Z,18.95
2023-10-19T00:12:11.012Z,15.57
2023-10-19T00:14:37.782Z,14.40
2023-10-19T00:17:11.901Z,19.38
2023-10-19T00:19:58.484Z,16.52
2023-10-19T00:22:25.593Z,18.60
2023-10-19T00:27:20.580Z,19.33
2023-10-19T00:29:50.712Z,17.80
2023-10-19T00:32:20.553Z,22.40
2023-10-19T00:34:53.229Z,17.83
2023-10-19T00:37:27.358Z,17.52
2023-10-19T00:39:56.738Z,18.70
2023-10-19T00:42:32.472Z,17.17
2023-10-19T00:45:06.996Z,15.90
2023-10-19T00:47:41.535Z,19.65
2023-10-19T00:50:23.249Z,20.55
2023-10-19T00:52:51.378Z,20.42
2023-10-19T00:55:22.752Z,18.40
2023-10-19T00:57:51.034Z,16.25
2023-10-19T01:00:35.573Z,17.63
2023-10-19T01:03:06.300Z,18.17
2023-10-19T01:05:37.141Z,18.25
2023-10-19T01:08:29.126Z,17.85
2023-10-19T01:10:55.797Z,15.85
2023-10-19T01:13:28.879Z,15.10
2023-10-19T01:15:55.738Z,20.67
2023-10-19T01:18:23.539Z,17.85
2023-10-19T01:20:54.116Z,18.10
2023-10-19T01:23:26.573Z,19.27
2023-10-19T01:26:00.231Z,15.25
2023-10-19T01:28:51.264Z,19.88
2023-10-19T01:31:29.523Z,16.45
2023-10-19T01:33:58.847Z,18.63
2023-10-19T01:36:26.681Z,18.33
2023-10-19T01:38:56.533Z,19.15
2023-10-19T01:41:25.509Z,17.58
2023-10-19T01:43:54.876Z,20.08
2023-10-19T01:46:35.075Z,17.10
2023-10-19T01:49:04.773Z,15.80
2023-10-19T01:51:34.101Z,17.83
2023-10-19T01:54:06.274Z,15.55
2023-10-19T01:56:36.495Z,21.20
2023-10-19T01:59:06.214Z,16.25
2023-10-19T02:01:34.216Z,17.35
2023-10-19T02:04:04.497Z,20.80
2023-10-19T02:06:38.083Z,17.65
2023-10-19T02:09:18.074Z,19.48
2023-10-19T02:11:49.387Z,17.00
2023-10-19T02:14:20.196Z,22.48
2023-10-19T02:16:53.204Z,20.95
2023-10-19T02:19:21.644Z,19.20
2023-10-19T02:21:59.616Z,20.42
2023-10-19T02:24:27.309Z,19.08
2023-10-19T02:26:58.856Z,19.92
2023-10-19T02:29:27.275Z,19.88
2023-10-19T02:31:57.440Z,23.00
2023-10-19T02:34:24.560Z,20.20
2023-10-19T02:36:51.290Z,20.80
2023-10-19T02:39:18.893Z,21.38
2023-10-19T02:41:49.291Z,22.65
2023-10-19T02:44:23.288Z,20.70
2023-10-19T02:46:53.223Z,22.30
2023-10-19T02:49:22.449Z,21.55
2023-10-19T02:51:50.745Z,21.35
2023-10-19T02:54:31.215Z,21.02
2023-10-19T02:56:59.586Z,20.23
2023-10-19T02:59:33.103Z,15.95
2023-10-19T03:02:13.333Z,21.30
2023-10-19T03:04:43.086Z,17.92
2023-10-19T03:07:13.242Z,22.30
2023-10-19T03:09:55.230Z,18.75
2023-10-19T03:12:26.637Z,21.10
2023-10-19T03:14:53.419Z,21.42
2023-10-19T03:17:24.277Z,18.65
2023-10-19T03:19:51.654Z,20.60
2023-10-19T03:22:18.522Z,21.42
2023-10-19T03:24:45.323Z,21.25
2023-10-19T03:27:22.929Z,20.02
2023-10-19T03:32:29.783Z,18.02
2023-10-19T03:34:57.803Z,19.33
2023-10-19T03:37:31.487Z,22.85
2023-10-19T03:39:59.841Z,20.00
2023-10-19T03:42:29.139Z,17.70
2023-10-19T03:44:56.129Z,18.58
2023-10-19T03:47:27.628Z,20.33
2023-10-19T03:49:54.794Z,23.60
2023-10-19T03:54:50.315Z,21.35
2023-10-19T03:57:31.081Z,20.52
2023-10-19T03:59:58.416Z,19.98
2023-10-19T04:02:26.526Z,18.95
2023-10-19T04:04:53.731Z,22.60
2023-10-19T04:07:23.532Z,20.70
2023-10-19T04:10:09.392Z,22.00
2023-10-19T04:12:38.900Z,24.95
2023-10-19T04:15:18.186Z,23.13
2023-10-19T04:17:49.892Z,20.77
2023-10-19T04:20:20.172Z,22.48
2023-10-19T04:22:48.813Z,20.25
2023-10-19T04:25:30.567Z,23.75
2023-10-19T04:27:58.550Z,17.90
2023-10-19T04:30:25.722Z,22.55
2023-10-19T04:32:52.668Z,21.38
2023-10-19T04:35:23.052Z,21.08
2023-10-19T04:37:54.576Z,24.27
2023-10-19T04:40:22.652Z,21.50
2023-10-19T04:42:51.367Z,26.35
2023-10-19T04:45:18.125Z,22.20
2023-10-19T04:47:44.808Z,25.15
2023-10-19T04:50:11.962Z,24.92
2023-10-19T04:55:06.523Z,21.50
2023-10-19T04:57:33.456Z,25.42
2023-10-19T05:00:00.354Z,27.85
2023-10-19T05:02:27.190Z,21.98
2023-10-19T05:04:53.844Z,23.17
2023-10-19T05:07:20.440Z,26.40
2023-10-19T05:09:48.158Z,21.73
2023-10-19T05:12:15.692Z,28.48
2023-10-19T05:14:43.517Z,23.70
2023-10-19T05:17:13.890Z,22.92
2023-10-19T05:19:41.215Z,25.75
2023-10-19T05:22:09.612Z,21.90
2023-10-19T05:24:37.120Z,23.15
2023-10-19T05:27:04.637Z,25.05
2023-10-19T05:29:34.576Z,20.05
2023-10-19T05:32:01.986Z,26.50
2023-10-19T05:34:30.644Z,24.20
2023-10-19T05:37:00.186Z,25.77
2023-10-19T05:39:30.071Z,25.35
2023-10-19T05:41:56.920Z,23.40
2023-10-19T05:44:26.081Z,27.42
2023-10-19T05:46:53.183Z,23.48
2023-10-19T05:49:19.800Z,25.55
2023-10-19T05:51:46.440Z,22.77
2023-10-19T05:54:13.675Z,24.27
2023-10-19T05:56:40.466Z,28.90
2023-10-19T05:59:07.928Z,29.70
2023-10-19T06:01:34.937Z,27.73
2023-10-19T06:04:01.915Z,27.02
2023-10-19T06:06:28.631Z,28.17
2023-10-19T06:08:55.321Z,21.88
2023-10-19T06:11:22.981Z,24.70
2023-10-19T06:13:49.772Z,25.42
2023-10-19T06:16:19.355Z,23.88
2023-10-19T06:18:46.257Z,24.35
2023-10-19T06:21:13.625Z,27.10
2023-10-19T06:23:40.340Z,22.60
2023-10-19T06:26:14.442Z,24.48
2023-10-19T06:28:42.230Z,25.23
2023-10-19T06:31:09.939Z,26.55
2023-10-19T06:33:37.234Z,29.52
2023-10-19T06:36:04.817Z,21.02
2023-10-19T06:38:32.798Z,27.20
2023-10-19T06:41:00.917Z,27.33
2023-10-19T06:43:31.099Z,24.90
2023-10-19T06:46:01.568Z,30.40
2023-10-19T06:48:28.414Z,26.25
2023-10-19T06:50:55.020Z,27.55
2023-10-19T06:53:22.859Z,22.83
2023-10-19T06:55:49.585Z,25.10
2023-10-19T06:58:16.344Z,26.10
2023-10-19T07:00:48.331Z,27.33
2023-10-19T07:03:15.229Z,28.80
2023-10-19T07:05:41.917Z,28.42
2023-10-19T07:08:08.468Z,28.23
2023-10-19T07:10:36.210Z,26.67
2023-10-19T07:13:03.313Z,24.95
2023-10-19T07:17:59.519Z,22.17
2023-10-19T07:20:26.944Z,23.10
2023-10-19T07:22:55.576Z,25.25
2023-10-19T07:25:23.017Z,29.33
2023-10-19T07:27:51.079Z,26.70
2023-10-19T07:30:23.389Z,29.00
2023-10-19T07:32:55.671Z,26.85
2023-10-19T07:35:23.774Z,28.02
2023-10-19T07:37:51.584Z,23.80
2023-10-19T07:40:19.509Z,25.63
2023-10-19T07:42:47.700Z,24.08
2023-10-19T07:45:14.397Z,29.45
2023-10-19T07:47:42.062Z,23.55
2023-10-19T07:50:18.750Z,29.33
2023-10-19T07:52:50.809Z,27.33
2023-10-19T07:55:18.821Z,27.42
2023-10-19T07:57:45.992Z,28.17
2023-10-19T08:02:43.500Z,27.08
2023-10-19T08:07:47.925Z,28.80
2023-10-19T08:10:16.512Z,24.83
2023-10-19T08:12:44.289Z,28.27
2023-10-19T08:15:12.375Z,26.85
2023-10-19T08:17:40.697Z,28.20
2023-10-19T08:20:24.148Z,22.42
2023-10-19T08:22:53.251Z,26.83
2023-10-19T08:25:20.000Z,28.48
2023-10-19T08:27:49.643Z,26.38
2023-10-19T08:30:21.275Z,28.10
2023-10-19T08:32:49.356Z,25.25
2023-10-19T08:35:19.625Z,25.98
2023-10-19T08:37:47.340Z,27.40
2023-10-19T08:40:18.630Z,30.85
2023-10-19T08:42:46.742Z,27.80
2023-10-19T08:45:14.350Z,25.42
2023-10-19T08:47:57.834Z,25.35
2023-10-19T08:50:30.280Z,26.85
2023-10-19T08:53:04.764Z,30.17
2023-10-19T08:55:48.516Z,29.55
2023-10-19T08:58:17.937Z,28.15
2023-10-19T09:00:50.737Z,28.25
2023-10-19T09:03:25.663Z,27.60
2023-10-19T09:05:52.871Z,24.55
2023-10-19T09:08:21.085Z,30.23
2023-10-19T09:10:49.968Z,28.33
2023-10-19T09:13:19.869Z,30.23
2023-10-19T09:15:50.544Z,30.77
2023-10-19T09:18:22.140Z,29.80
2023-10-19T09:21:10.810Z,27.55
2023-10-19T09:23:38.078Z,31.35
2023-10-19T09:26:08.861Z,25.17
2023-10-19T09:28:37.437Z,28.80
2023-10-19T09:31:05.016Z,34.53
2023-10-19T09:33:35.667Z,26.38
2023-10-19T09:36:05.888Z,27.98
2023-10-19T09:38:34.190Z,29.10
2023-10-19T09:41:01.867Z,24.70
2023-10-19T09:43:36.005Z,31.67
2023-10-19T09:46:07.802Z,26.88
2023-10-19T09:48:42.772Z,34.22
2023-10-19T09:51:16.467Z,32.25
2023-10-19T09:53:48.588Z,28.85
2023-10-19T09:56:25.006Z,30.10
2023-10-19T09:59:00.917Z,27.85
2023-10-19T10:01:28.408Z,30.73
2023-10-19T10:03:55.375Z,27.92
2023-10-19T10:06:51.739Z,26.15
2023-10-19T10:09:25.227Z,26.30
2023-10-19T10:11:54.886Z,24.70
2023-10-19T10:14:27.173Z,25.13
2023-10-19T10:17:04.838Z,25.85
2023-10-19T10:19:31.978Z,23.35
2023-10-19T10:24:33.067Z,22.55
2023-10-19T10:27:04.363Z,23.23
2023-10-19T10:29:32.721Z,26.00
2023-10-19T10:32:00.776Z,23.77
2023-10-19T10:34:43.778Z,23.55
2023-10-19T10:37:15.338Z,25.45
2023-10-19T10:39:42.049Z,21.63
2023-10-19T10:42:10.942Z,22.35
2023-10-19T10:44:41.617Z,23.38
2023-10-19T10:47:10.855Z,22.63
2023-10-19T10:49:57.233Z,21.30
2023-10-19T10:52:35.342Z,21.20
2023-10-19T10:55:13.896Z,23.00
2023-10-19T10:57:42.306Z,23.45
2023-10-19T11:00:11.136Z,24.58
2023-10-19T11:02:43.906Z,22.90
2023-10-19T11:05:15.107Z,21.73
2023-10-19T11:07:43.357Z,25.40
2023-10-19T11:10:11.225Z,24.98
2023-10-19T11:12:38.746Z,24.67
2023-10-19T11:15:10.855Z,22.73
2023-10-19T11:17:44.715Z,25.65
2023-10-19T11:20:22.324Z,24.02
2023-10-19T11:22:51.135Z,26.23
2023-10-19T11:25:25.444Z,23.23
2023-10-19T11:27:52.237Z,27.85
2023-10-19T11:30:30.459Z,25.95
2023-10-19T11:33:03.299Z,27.52
2023-10-19T11:35:32.593Z,25.27
2023-10-19T11:38:00.997Z,23.45
2023-10-19T11:40:28.358Z,22.30
2023-10-19T11:42:59.879Z,23.70
2023-10-19T11:45:26.737Z,24.13
2023-10-19T11:47:54.660Z,24.63
2023-10-19T11:50:21.415Z,26.42
2023-10-19T11:52:48.158Z,23.20
2023-10-19T11:55:16.095Z,22.95
2023-10-19T11:57:45.492Z,24.23
2023-10-19T12:00:26.169Z,24.45
2023-10-19T12:02:53.317Z,21.45
2023-10-19T12:05:20.130Z,25.65
2023-10-19T12:07:46.787Z,24.55
2023-10-19T12:10:13.828Z,24.15
2023-10-19T12:15:13.423Z,21.98
2023-10-19T12:17:40.343Z,24.92
2023-10-19T12:20:07.833Z,23.40
2023-10-19T12:22:40.435Z,22.02
2023-10-19T12:25:07.593Z,23.50
2023-10-19T12:27:34.324Z,26.13
2023-10-19T12:30:02.872Z,23.05
2023-10-19T12:32:29.622Z,25.05
2023-10-19T12:34:58.848Z,23.00
2023-10-19T12:37:25.965Z,21.92
2023-10-19T12:39:53.284Z,22.55
2023-10-19T12:42:19.868Z,24.10
2023-10-19T12:44:48.322Z,22.85
2023-10-19T12:47:15.432Z,24.42
2023-10-19T12:49:42.195Z,23.67
2023-10-19T12:52:11.821Z,24.25
2023-10-19T12:54:39.079Z,22.45
2023-10-19T12:57:08.647Z,25.50
2023-10-19T12:59:38.767Z,26.52
2023-10-19T13:02:09.736Z,24.88
2023-10-19T13:04:37.815Z,21.52
2023-10-19T13:07:06.565Z,22.95
2023-10-19T13:09:34.016Z,25.85
2023-10-19T13:14:28.651Z,24.27
2023-10-19T13:16:55.966Z,24.33
2023-10-19T13:19:27.160Z,27.95
2023-10-19T13:21:55.533Z,28.42
2023-10-19T13:24:22.080Z,24.80
2023-10-19T13:26:49.687Z,26.13
2023-10-19T13:29:21.838Z,26.48
2023-10-19T13:31:51.676Z,25.88
2023-10-19T13:34:18.395Z,26.73
2023-10-19T13:36:47.744Z,24.90
2023-10-19T13:39:17.769Z,25.35
2023-10-19T13:41:45.301Z,28.77
2023-10-19T13:44:13.096Z,23.10
2023-10-19T13:46:40.018Z,26.88
2023-10-19T13:49:07.060Z,27.88
2023-10-19T13:51:34.429Z,27.75
2023-10-19T13:54:01.198Z,24.85
2023-10-19T13:56:28.251Z,26.35
2023-10-19T14:01:25.616Z,21.73
2023-10-19T14:03:56.130Z,37.20
2023-10-19T14:06:24.958Z,26.27
2023-10-19T14:08:52.603Z,28.35
2023-10-19T14:11:47.989Z,28.33
2023-10-19T14:21:54.475Z,24.58
2023-10-19T14:24:21.271Z,26.65
2023-10-19T14:26:48.076Z,25.58
2023-10-19T14:29:14.992Z,33.83
2023-10-19T14:31:42.048Z,25.25
2023-10-19T14:36:38.353Z,25.08
2023-10-19T14:39:06.403Z,30.40
2023-10-19T14:41:33.844Z,24.10
2023-10-19T14:44:02.288Z,22.42
2023-10-19T14:46:30.563Z,24.55
2023-10-19T14:48:57.207Z,24.83
2023-10-19T14:51:24.091Z,27.00
2023-10-19T14:53:50.860Z,24.27
2023-10-19T14:56:17.634Z,23.95
2023-10-19T14:58:44.360Z,23.85
2023-10-19T15:01:17.577Z,26.00
2023-10-19T15:03:44.369Z,25.50
2023-10-19T15:06:11.757Z,26.35
2023-10-19T15:08:38.886Z,22.95
2023-10-19T15:11:05.648Z,29.38
2023-10-19T15:13:32.424Z,25.63
2023-10-19T15:16:08.529Z,31.25
2023-10-19T15:18:37.367Z,28.77
2023-10-19T15:21:09.610Z,30.45
2023-10-19T15:23:37.489Z,28.15
2023-10-19T15:26:04.196Z,29.52
2023-10-19T15:28:34.338Z,27.30
2023-10-19T15:31:01.072Z,25.80
2023-10-19T15:33:28.379Z,31.00
2023-10-19T15:35:58.700Z,33.90
2023-10-19T15:38:25.396Z,27.55
2023-10-19T15:40:52.094Z,27.88
2023-10-19T15:43:18.672Z,28.55
2023-10-19T15:45:46.519Z,30.17
2023-10-19T15:48:13.555Z,32.85
2023-10-19T15:50:44.501Z,33.08
2023-10-19T15:53:11.577Z,60.70
2023-10-19T15:58:06.562Z,35.28
2023-10-19T16:00:34.175Z,30.30
2023-10-19T16:03:01.305Z,31.73
2023-10-19T16:07:54.458Z,33.88
2023-10-19T16:10:21.605Z,37.13
2023-10-19T16:12:48.557Z,33.78
2023-10-19T16:15:15.303Z,47.38
2023-10-19T16:17:44.365Z,31.67
2023-10-19T16:20:14.096Z,34.40
2023-10-19T16:22:41.112Z,36.08
2023-10-19T16:25:08.794Z,34.92
2023-10-19T16:27:35.493Z,39.65
2023-10-19T16:30:02.446Z,34.85
2023-10-19T16:34:58.894Z,37.08
2023-10-19T16:39:53.949Z,34.40
2023-10-19T16:42:21.947Z,39.17
2023-10-19T16:44:48.923Z,35.58
2023-10-19T16:47:15.527Z,37.38
2023-10-19T16:49:42.153Z,41.83
2023-10-19T16:52:08.878Z,37.22
2023-10-19T16:54:38.501Z,37.15
2023-10-19T16:57:05.298Z,40.53
2023-10-19T16:59:32.177Z,34.70
2023-10-19T17:01:59.150Z,40.35
2023-10-19T17:04:26.955Z,37.67
2023-10-19T17:06:53.844Z,39.75
2023-10-19T17:09:22.125Z,41.92
2023-10-19T17:11:50.913Z,42.80
2023-10-19T17:14:17.637Z,37.72
2023-10-19T17:16:45.564Z,39.20
2023-10-19T17:19:12.676Z,36.67
2023-10-19T17:21:42.067Z,38.67
2023-10-19T17:24:10.108Z,38.55
2023-10-19T17:26:36.753Z,39.42
2023-10-19T17:29:03.626Z,35.92
2023-10-19T17:31:30.795Z,38.35
2023-10-19T17:33:58.045Z,35.03
2023-10-19T17:38:52.348Z,39.53
2023-10-19T17:41:19.576Z,40.55
2023-10-19T17:46:15.231Z,36.42
2023-10-19T17:48:45.149Z,40.20
2023-10-19T17:51:14.569Z,40.92
2023-10-19T17:53:41.551Z,41.10
2023-10-19T17:56:09.005Z,37.50
2023-10-19T17:58:36.426Z,38.13
2023-10-19T18:01:10.816Z,40.63
2023-10-19T18:03:42.354Z,37.55
2023-10-19T18:06:10.575Z,39.03
2023-10-19T18:08:37.875Z,44.00
2023-10-19T18:11:04.938Z,43.08
2023-10-19T18:13:34.577Z,39.22
2023-10-19T18:16:04.063Z,40.60
2023-10-19T18:18:31.185Z,43.55
2023-10-19T18:20:58.756Z,38.30
2023-10-19T18:23:28.803Z,41.90
2023-10-19T18:25:57.137Z,38.88
2023-10-19T18:28:24.290Z,36.78
2023-10-19T18:33:30.288Z,36.70
2023-10-19T18:36:01.470Z,36.33
2023-10-19T18:38:29.142Z,37.85
2023-10-19T18:41:00.319Z,38.85
2023-10-19T18:43:30.809Z,40.25
2023-10-19T18:45:57.862Z,39.53
2023-10-19T18:53:37.124Z,32.75
2023-10-19T18:56:07.495Z,41.90
2023-10-19T18:58:35.107Z,38.40
2023-10-19T19:01:03.434Z,34.40
2023-10-19T19:03:33.095Z,31.85
2023-10-19T19:06:01.842Z,37.47
2023-10-19T19:08:30.100Z,32.92
2023-10-19T19:10:58.620Z,30.00
2023-10-19T19:13:26.370Z,34.83
2023-10-19T19:15:54.345Z,32.63
2023-10-19T19:18:21.128Z,31.90
2023-10-19T19:20:47.813Z,31.60
2023-10-19T19:23:14.444Z,30.25
2023-10-19T19:25:44.353Z,29.45
2023-10-19T19:28:10.938Z,30.25
2023-10-19T19:30:38.603Z,29.38
2023-10-19T19:33:06.852Z,28.48
2023-10-19T19:35:33.504Z,27.42
2023-10-19T19:38:00.644Z,30.42
2023-10-19T19:40:27.311Z,27.73
2023-10-19T19:42:54.227Z,30.95
2023-10-19T19:45:23.797Z,25.65
2023-10-19T19:47:53.920Z,30.95
2023-10-19T19:50:21.816Z,26.92
2023-10-19T19:52:48.862Z,28.75
2023-10-19T19:55:15.806Z,25.77
2023-10-19T19:57:42.978Z,29.25
2023-10-19T20:02:45.978Z,25.75
2023-10-19T20:05:13.489Z,26.45
2023-10-19T20:07:40.721Z,24.42
2023-10-19T20:12:42.292Z,21.55
2023-10-19T20:15:09.490Z,24.20
2023-10-19T20:17:36.400Z,21.05
2023-10-19T20:20:12.637Z,21.20
2023-10-19T20:22:41.738Z,23.90
2023-10-19T20:25:12.697Z,22.52
2023-10-19T20:27:41.117Z,20.20
2023-10-19T20:30:08.629Z,18.77
2023-10-19T20:32:35.782Z,19.33
2023-10-19T20:37:28.937Z,17.67
2023-10-19T20:39:59.001Z,18.42
2023-10-19T20:42:25.623Z,16.42
2023-10-19T20:44:53.426Z,18.92
2023-10-19T20:47:20.119Z,17.23
2023-10-19T20:49:46.878Z,16.50
2023-10-19T20:52:13.451Z,16.25
2023-10-19T20:54:40.745Z,15.70
2023-10-19T20:57:07.873Z,16.50
2023-10-19T21:02:03.942Z,15.70
2023-10-19T21:04:31.933Z,15.18
2023-10-19T21:06:58.834Z,15.43
2023-10-19T21:09:25.479Z,15.82
2023-10-19T21:11:52.004Z,16.10
2023-10-19T21:14:18.700Z,18.63
2023-10-19T21:16:45.312Z,14.02
2023-10-19T21:19:22.381Z,14.52
2023-10-19T21:21:58.814Z,12.95
2023-10-19T21:24:25.441Z,13.95
2023-10-19T21:26:52.379Z,14.25
2023-10-19T21:29:19.132Z,12.60
2023-10-19T21:31:45.765Z,13.75
2023-10-19T21:34:12.508Z,10.68
2023-10-19T21:36:39.084Z,11.15
2023-10-19T21:39:05.854Z,11.85
2023-10-19T21:41:32.492Z,13.30
2023-10-19T21:43:59.794Z,11.95
2023-10-19T21:46:26.933Z,11.55
2023-10-19T21:48:53.571Z,13.45
2023-10-19T21:51:20.304Z,11.88
2023-10-19T21:53:51.138Z,10.57
2023-10-19T21:56:18.762Z,12.95
2023-10-19T21:58:45.471Z,12.85
2023-10-19T22:01:14.653Z,10.38
2023-10-19T22:03:42.563Z,12.00
2023-10-19T22:06:09.395Z,11.27
2023-10-19T22:08:36.525Z,11.73
2023-10-19T22:11:03.387Z,12.82
2023-10-19T22:13:31.884Z,9.93
2023-10-19T22:15:58.507Z,10.77
2023-10-19T22:18:25.300Z,11.50
2023-10-19T22:20:56.062Z,10.15
2023-10-19T22:23:23.566Z,9.88
2023-10-19T22:25:50.160Z,9.60
2023-10-19T22:28:17.404Z,12.40
2023-10-19T22:30:44.136Z,10.13
2023-10-19T22:33:10.811Z,7.13
2023-10-19T22:35:38.471Z,8.85
2023-10-19T22:38:06.027Z,7.40
2023-10-19T22:40:32.653Z,8.68
2023-10-19T22:42:59.298Z,8.40
2023-10-19T22:45:25.939Z,7.45
2023-10-19T22:47:53.247Z,7.50
2023-10-19T22:50:20.099Z,7.72
2023-10-19T22:52:47.058Z,8.32
2023-10-19T22:57:41.996Z,8.45
2023-10-19T23:00:15.904Z,5.60
2023-10-19T23:02:46.421Z,6.25
2023-10-19T23:05:14.524Z,6.10
2023-10-19T23:07:42.622Z,6.03
2023-10-19T23:10:13.668Z,7.50
2023-10-19T23:12:42.228Z,6.53
2023-10-19T23:15:20.397Z,5.07
2023-10-19T23:17:50.875Z,6.30
2023-10-19T23:20:29.290Z,7.57
2023-10-19T23:22:58.107Z,5.53
2023-10-19T23:25:24.966Z,5.80
2023-10-19T23:27:51.576Z,5.80
2023-10-19T23:30:18.293Z,4.72
2023-10-19T23:32:44.993Z,5.30
2023-10-19T23:35:11.723Z,6.38
2023-10-19T23:37:38.413Z,5.82
2023-10-19T23:40:08.559Z,4.95
2023-10-19T23:42:35.727Z,5.38
2023-10-19T23:47:28.904Z,4.63
2023-10-19T23:49:55.661Z,4.85
2023-10-19T23:52:22.262Z,4.82
2023-10-19T23:54:48.983Z,4.60
2023-10-19T23:57:18.333Z,3.72
2023-10-19T23:59:48.381Z,4.63
